TimeEDT,TemperatureF,Dew PointF,Humidity,Sea Level PressureIn,VisibilityMPH,Wind Direction,Wind SpeedMPH,Gust SpeedMPH,PrecipitationIn,Events,Conditions,WindDirDegrees,DateUTC
12:51 AM,66.0,64.0,93,30.05,8.0,Calm,Calm,-,N/A,,Clear,0,2012-10-05 04:51:00
1:51 AM,64.0,63.0,96,30.06,5.0,Calm,Calm,-,N/A,,Clear,0,2012-10-05 05:51:00
2:51 AM,64.0,63.0,96,30.06,6.0,West,3.5,-,N/A,,Clear,260,2012-10-05 06:51:00
3:51 AM,62.1,61.0,96,30.05,7.0,WSW,3.5,-,N/A,,Clear,250,2012-10-05 07:51:00
4:51 AM,62.1,61.0,96,30.05,9.0,West,3.5,-,N/A,,Clear,260,2012-10-05 08:51:00
5:51 AM,61.0,59.0,93,30.06,9.0,Calm,Calm,-,N/A,,Clear,0,2012-10-05 09:51:00
6:51 AM,61.0,57.9,90,30.07,10.0,West,3.5,-,N/A,,Clear,260,2012-10-05 10:51:00
7:51 AM,63.0,59.0,87,30.07,10.0,West,4.6,-,N/A,,Partly Cloudy,260,2012-10-05 11:51:00
8:51 AM,64.9,59.0,81,30.08,10.0,West,4.6,-,N/A,,Partly Cloudy,270,2012-10-05 12:51:00
9:51 AM,69.1,57.9,68,30.07,9.0,WSW,4.6,-,N/A,,Partly Cloudy,250,2012-10-05 13:51:00
10:51 AM,72.0,59.0,64,30.07,10.0,Calm,Calm,-,N/A,,Clear,0,2012-10-05 14:51:00
11:51 AM,75.9,57.0,52,30.05,10.0,Calm,Calm,-,N/A,,Clear,0,2012-10-05 15:51:00
12:51 PM,78.1,55.9,46,30.03,10.0,SW,5.8,-,N/A,,Partly Cloudy,230,2012-10-05 16:51:00
1:51 PM,79.0,57.9,48,30.00,10.0,SSW,8.1,-,N/A,,Partly Cloudy,210,2012-10-05 17:51:00
2:51 PM,80.6,55.4,42,29.97,10.0,Variable,4.6,-,N/A,,Partly Cloudy,0,2012-10-05 18:51:00
3:51 PM,80.1,57.0,45,29.96,10.0,West,10.4,-,N/A,,Partly Cloudy,280,2012-10-05 19:51:00
4:51 PM,79.0,55.0,44,29.96,10.0,WSW,9.2,-,N/A,,Partly Cloudy,240,2012-10-05 20:51:00
5:51 PM,78.1,55.9,46,29.96,10.0,West,9.2,-,N/A,,Scattered Clouds,270,2012-10-05 21:51:00
6:51 PM,75.0,55.9,51,29.96,10.0,SW,8.1,-,N/A,,Partly Cloudy,230,2012-10-05 22:51:00
7:51 PM,75.0,57.0,53,29.96,10.0,SW,10.4,-,N/A,,Partly Cloudy,230,2012-10-05 23:51:00
8:51 PM,73.0,57.0,57,29.96,10.0,SW,11.5,17.3,N/A,,Partly Cloudy,230,2012-10-06 00:51:00
9:51 PM,69.1,57.9,68,29.95,10.0,SW,6.9,-,N/A,,Partly Cloudy,220,2012-10-06 01:51:00
10:51 PM,66.9,57.9,73,29.94,10.0,SW,6.9,-,N/A,,Partly Cloudy,220,2012-10-06 02:51:00
11:51 PM,66.0,57.9,75,29.93,10.0,SSW,4.6,-,N/A,,Partly Cloudy,210,2012-10-06 03:51:00